createdAt,value
2022-12-08T00:00:07.431Z,20.50
2022-12-08T00:02:34.208Z,17.27
2022-12-08T00:05:19.739Z,19.50
2022-12-08T00:08:05.041Z,17.63
2022-12-08T00:13:18.400Z,18.97
2022-12-08T00:15:45.114Z,19.17
2022-12-08T00:18:12.396Z,19.63
2022-12-08T00:20:39.043Z,19.87
2022-12-08T00:23:05.844Z,16.20
2022-12-08T00:25:35.529Z,19.07
2022-12-08T00:28:02.268Z,18.70
2022-12-08T00:30:28.937Z,17.30
2022-12-08T00:32:55.592Z,22.23
2022-12-08T00:35:22.278Z,19.20
2022-12-08T00:37:48.878Z,28.60
2022-12-08T00:40:15.603Z,19.17
2022-12-08T00:42:42.193Z,21.50
2022-12-08T00:45:09.128Z,17.37
2022-12-08T00:47:35.755Z,22.03
2022-12-08T00:50:02.866Z,20.47
2022-12-08T00:52:29.733Z,17.57
2022-12-08T00:54:56.412Z,17.57
2022-12-08T00:57:23.058Z,18.60
2022-12-08T00:59:49.732Z,20.20
2022-12-08T01:02:16.334Z,20.30
2022-12-08T01:04:43.056Z,18.70
2022-12-08T01:07:09.765Z,19.57
2022-12-08T01:09:36.564Z,22.10
2022-12-08T01:12:03.482Z,19.50
2022-12-08T01:14:30.154Z,15.20
2022-12-08T01:16:57.041Z,25.13
2022-12-08T01:19:23.714Z,22.00
2022-12-08T01:21:50.355Z,18.43
2022-12-08T01:24:19.565Z,21.10
2022-12-08T01:26:47.681Z,17.33
2022-12-08T01:29:15.033Z,26.27
2022-12-08T01:31:41.858Z,17.83
2022-12-08T01:34:09.749Z,19.00
2022-12-08T01:36:37.264Z,20.00
2022-12-08T01:39:07.807Z,18.77
2022-12-08T01:41:36.202Z,18.97
2022-12-08T01:44:02.871Z,19.23
2022-12-08T01:46:32.085Z,20.40
2022-12-08T01:49:05.602Z,15.70
2022-12-08T01:51:38.355Z,22.50
2022-12-08T01:54:06.942Z,25.30
2022-12-08T01:56:43.554Z,19.10
2022-12-08T01:59:11.641Z,17.07
2022-12-08T02:01:38.938Z,19.07
2022-12-08T02:04:06.611Z,24.80
2022-12-08T02:06:37.030Z,19.90
2022-12-08T02:09:05.388Z,19.23
2022-12-08T02:11:32.036Z,21.90
2022-12-08T02:14:01.113Z,22.73
2022-12-08T02:16:43.346Z,19.50
2022-12-08T02:19:31.246Z,22.33
2022-12-08T02:22:07.103Z,20.13
2022-12-08T02:24:50.404Z,22.27
2022-12-08T02:27:46.286Z,21.50
2022-12-08T02:30:20.248Z,20.13
2022-12-08T02:32:56.110Z,20.70
2022-12-08T02:35:30.253Z,21.50
2022-12-08T02:37:59.458Z,23.93
2022-12-08T02:40:39.623Z,17.90
2022-12-08T02:43:27.073Z,17.80
2022-12-08T02:46:00.932Z,20.90
2022-12-08T02:48:29.245Z,20.77
2022-12-08T02:50:55.962Z,20.10
2022-12-08T02:53:22.573Z,21.53
2022-12-08T02:56:18.211Z,23.63
2022-12-08T02:59:03.857Z,19.30
2022-12-08T03:01:56.355Z,29.27
2022-12-08T03:04:48.943Z,24.97
2022-12-08T03:07:25.023Z,20.23
2022-12-08T03:09:56.416Z,27.40
2022-12-08T03:12:37.073Z,22.93
2022-12-08T03:15:11.363Z,21.63
2022-12-08T03:17:43.483Z,25.57
2022-12-08T03:20:14.073Z,26.60
2022-12-08T03:22:42.079Z,20.80
2022-12-08T03:25:13.312Z,26.03
2022-12-08T03:27:40.310Z,25.10
2022-12-08T03:30:07.823Z,22.77
2022-12-08T03:32:47.811Z,25.07
2022-12-08T03:35:19.690Z,33.03
2022-12-08T03:37:46.488Z,27.40
2022-12-08T03:40:17.469Z,24.57
2022-12-08T03:42:44.538Z,21.67
2022-12-08T03:45:11.504Z,26.43
2022-12-08T03:47:38.356Z,23.20
2022-12-08T03:50:06.291Z,27.03
2022-12-08T03:52:33.351Z,22.63
2022-12-08T03:55:00.154Z,27.63
2022-12-08T03:57:26.898Z,29.80
2022-12-08T03:59:53.527Z,26.37
2022-12-08T04:02:20.258Z,27.83
2022-12-08T04:04:46.955Z,25.50
2022-12-08T04:07:13.694Z,22.47
2022-12-08T04:09:41.615Z,26.00
2022-12-08T04:12:09.116Z,20.80
2022-12-08T04:14:35.756Z,28.87
2022-12-08T04:17:02.382Z,23.23
2022-12-08T04:19:29.391Z,19.50
2022-12-08T04:21:56.163Z,22.87
2022-12-08T04:24:22.799Z,23.13
2022-12-08T04:26:52.099Z,27.33
2022-12-08T04:29:18.945Z,25.03
2022-12-08T04:31:45.687Z,26.47
2022-12-08T04:34:12.482Z,24.70
2022-12-08T04:36:39.161Z,23.27
2022-12-08T04:39:05.804Z,23.80
2022-12-08T04:41:32.649Z,24.80
2022-12-08T04:43:59.282Z,26.63
2022-12-08T04:46:26.028Z,21.90
2022-12-08T04:48:52.751Z,24.23
2022-12-08T04:51:20.710Z,23.13
2022-12-08T04:53:47.752Z,22.97
2022-12-08T04:56:18.864Z,26.83
2022-12-08T04:58:45.938Z,35.00
2022-12-08T05:01:13.325Z,23.13
2022-12-08T05:03:40.131Z,27.10
2022-12-08T05:06:07.481Z,21.33
2022-12-08T05:08:34.205Z,28.27
2022-12-08T05:11:07.220Z,21.63
2022-12-08T05:13:33.924Z,19.87
2022-12-08T05:16:09.268Z,23.93
2022-12-08T05:18:36.818Z,23.90
2022-12-08T05:21:04.288Z,18.60
2022-12-08T05:23:31.207Z,23.60
2022-12-08T05:25:58.266Z,17.00
2022-12-08T05:28:42.680Z,20.47
2022-12-08T05:31:11.100Z,18.63
2022-12-08T05:33:37.809Z,19.03
2022-12-08T05:36:04.568Z,19.63
2022-12-08T05:38:31.426Z,17.50
2022-12-08T05:40:58.567Z,16.83
2022-12-08T05:43:25.271Z,14.90
2022-12-08T05:45:51.945Z,24.97
2022-12-08T05:48:18.713Z,17.43
2022-12-08T05:50:49.255Z,16.87
2022-12-08T05:53:17.588Z,18.43
2022-12-08T05:55:44.473Z,20.83
2022-12-08T05:58:16.056Z,14.33
2022-12-08T06:00:43.290Z,16.07
2022-12-08T06:03:11.913Z,17.17
2022-12-08T06:05:38.909Z,14.40
2022-12-08T06:08:05.741Z,15.67
2022-12-08T06:10:32.411Z,16.33
2022-12-08T06:12:59.067Z,17.40
2022-12-08T06:15:26.027Z,13.83
2022-12-08T06:17:52.780Z,10.83
2022-12-08T06:20:19.599Z,16.00
2022-12-08T06:22:46.279Z,12.27
2022-12-08T06:25:13.039Z,10.30
2022-12-08T06:27:39.720Z,14.30
2022-12-08T06:30:07.367Z,16.30
2022-12-08T06:32:34.301Z,9.30
2022-12-08T06:35:00.994Z,11.73
2022-12-08T06:37:27.621Z,12.37
2022-12-08T06:39:54.392Z,16.60
2022-12-08T06:42:39.603Z,11.80
2022-12-08T06:45:07.874Z,13.13
2022-12-08T06:47:34.906Z,13.27
2022-12-08T06:50:01.986Z,14.53
2022-12-08T06:52:28.789Z,12.80
2022-12-08T06:54:55.547Z,12.50
2022-12-08T06:57:23.980Z,11.60
2022-12-08T06:59:50.635Z,11.20
2022-12-08T07:02:17.532Z,9.80
2022-12-08T07:04:44.445Z,9.93
2022-12-08T07:07:11.193Z,13.93
2022-12-08T07:09:37.967Z,12.27
2022-12-08T07:12:05.103Z,11.27
2022-12-08T07:14:31.746Z,12.63
2022-12-08T07:16:58.465Z,45.67
2022-12-08T07:19:25.277Z,27.70
2022-12-08T07:21:51.948Z,24.07
2022-12-08T07:24:18.680Z,17.67
2022-12-08T07:26:45.332Z,20.27
2022-12-08T07:29:12.055Z,14.83
2022-12-08T07:31:38.762Z,12.70
2022-12-08T07:34:05.386Z,14.10
2022-12-08T07:36:32.868Z,13.80
2022-12-08T07:38:59.604Z,15.20
2022-12-08T07:41:26.634Z,14.97
2022-12-08T07:43:54.208Z,18.87
2022-12-08T07:46:22.904Z,14.73
2022-12-08T07:48:49.766Z,12.00
2022-12-08T07:51:17.088Z,14.40
2022-12-08T07:53:51.594Z,16.50
2022-12-08T07:56:20.132Z,13.20
2022-12-08T07:58:46.971Z,14.50
2022-12-08T08:01:32.159Z,15.33
2022-12-08T08:04:01.957Z,20.90
2022-12-08T08:06:28.765Z,13.53
2022-12-08T08:08:55.409Z,13.90
2022-12-08T08:11:22.858Z,14.37
2022-12-08T08:13:50.847Z,14.67
2022-12-08T08:16:18.598Z,12.20
2022-12-08T08:18:47.786Z,16.10
2022-12-08T08:21:45.459Z,17.17
2022-12-08T08:24:01.548Z,12.80
2022-12-08T08:26:28.216Z,12.00
2022-12-08T08:28:54.848Z,12.20
2022-12-08T08:31:25.959Z,14.80
2022-12-08T08:33:53.113Z,13.97
2022-12-08T08:36:19.850Z,13.60
2022-12-08T08:38:47.039Z,17.30
2022-12-08T08:41:13.783Z,13.33
2022-12-08T08:43:40.579Z,18.67
2022-12-08T08:46:08.968Z,14.90
2022-12-08T08:48:36.278Z,21.10
2022-12-08T08:51:10.672Z,17.43
2022-12-08T08:53:38.065Z,15.30
2022-12-08T08:56:10.936Z,16.50
2022-12-08T08:58:37.870Z,18.33
2022-12-08T09:01:04.781Z,16.33
2022-12-08T09:03:31.905Z,16.97
2022-12-08T09:05:58.721Z,16.43
2022-12-08T09:08:25.513Z,14.30
2022-12-08T09:10:52.264Z,17.00
2022-12-08T09:13:18.938Z,16.07
2022-12-08T09:15:45.885Z,15.70
2022-12-08T09:18:12.711Z,19.50
2022-12-08T09:20:39.331Z,14.63
2022-12-08T09:23:06.047Z,13.23
2022-12-08T09:25:32.699Z,15.30
2022-12-08T09:27:59.724Z,13.30
2022-12-08T09:30:26.347Z,14.53
2022-12-08T09:32:53.085Z,12.47
2022-12-08T09:35:19.872Z,12.77
2022-12-08T09:37:46.577Z,12.30
2022-12-08T09:40:19.896Z,11.23
2022-12-08T09:42:51.997Z,14.73
2022-12-08T09:45:20.158Z,12.33
2022-12-08T09:47:59.085Z,10.57
2022-12-08T09:50:49.284Z,12.10
2022-12-08T09:53:33.822Z,7.73
2022-12-08T09:56:25.309Z,10.53
2022-12-08T09:59:16.892Z,12.10
2022-12-08T10:01:43.728Z,9.70
2022-12-08T10:04:34.804Z,11.30
2022-12-08T10:07:37.569Z,11.13
2022-12-08T10:10:39.101Z,14.80
2022-12-08T10:13:47.097Z,10.60
2022-12-08T10:16:36.756Z,11.00
2022-12-08T10:19:18.472Z,17.93
2022-12-08T10:21:46.490Z,12.10
2022-12-08T10:24:34.321Z,14.43
2022-12-08T10:27:02.609Z,11.53
2022-12-08T10:29:29.617Z,9.57
2022-12-08T10:31:58.766Z,13.30
2022-12-08T10:34:26.756Z,11.23
2022-12-08T10:36:58.851Z,12.03
2022-12-08T10:39:33.281Z,14.17
2022-12-08T10:42:09.742Z,11.60
2022-12-08T10:45:08.562Z,12.90
2022-12-08T10:47:40.716Z,12.07
2022-12-08T10:50:29.054Z,8.83
2022-12-08T10:52:58.762Z,10.07
2022-12-08T10:55:26.093Z,17.40
2022-12-08T10:57:52.788Z,12.93
2022-12-08T11:00:26.939Z,9.20
2022-12-08T11:03:05.343Z,10.23
2022-12-08T11:05:34.458Z,11.40
2022-12-08T11:08:02.946Z,13.40
2022-12-08T11:10:42.309Z,10.27
2022-12-08T11:13:19.947Z,6.97
2022-12-08T11:15:47.619Z,10.10
2022-12-08T11:18:26.773Z,11.77
2022-12-08T11:21:06.587Z,9.27
2022-12-08T11:23:36.182Z,9.13
2022-12-08T11:26:28.714Z,9.47
2022-12-08T11:28:56.882Z,9.63
2022-12-08T11:31:34.398Z,14.80
2022-12-08T11:34:01.848Z,11.53
2022-12-08T11:36:30.547Z,9.70
2022-12-08T11:39:00.548Z,10.93
2022-12-08T11:41:36.000Z,23.90
2022-12-08T11:44:12.801Z,10.80
2022-12-08T11:46:39.414Z,16.50
2022-12-08T11:49:15.301Z,12.33
2022-12-08T11:51:59.787Z,15.77
2022-12-08T11:54:36.088Z,11.37
2022-12-08T11:57:05.696Z,12.60
2022-12-08T11:59:38.300Z,9.20
2022-12-08T12:02:06.473Z,13.90
2022-12-08T12:04:46.392Z,18.83
2022-12-08T12:07:57.491Z,11.30
2022-12-08T12:10:35.586Z,7.67
2022-12-08T12:13:17.320Z,10.03
2022-12-08T12:16:28.128Z,12.03
2022-12-08T12:19:02.819Z,13.03
2022-12-08T12:21:46.139Z,12.97
2022-12-08T12:24:35.443Z,8.43
2022-12-08T12:27:08.160Z,16.20
2022-12-08T12:29:38.296Z,7.40
2022-12-08T12:32:08.542Z,15.23
2022-12-08T12:34:56.938Z,18.60
2022-12-08T12:37:41.575Z,7.87
2022-12-08T12:40:11.405Z,10.60
2022-12-08T12:42:42.457Z,10.80
2022-12-08T12:45:17.605Z,12.43
2022-12-08T12:47:52.546Z,9.33
2022-12-08T12:50:33.503Z,7.57
2022-12-08T12:53:17.027Z,7.97
2022-12-08T12:56:04.103Z,7.07
2022-12-08T12:58:30.707Z,6.80
2022-12-08T13:01:15.308Z,7.40
2022-12-08T13:03:45.766Z,7.00
2022-12-08T13:06:14.996Z,7.73
2022-12-08T13:08:51.034Z,8.80
2022-12-08T13:11:17.929Z,8.70
2022-12-08T13:14:04.618Z,6.37
2022-12-08T13:16:39.985Z,5.40
2022-12-08T13:19:14.857Z,5.30
2022-12-08T13:21:41.666Z,5.17
2022-12-08T13:24:14.041Z,4.53
2022-12-08T13:26:45.652Z,4.70
2022-12-08T13:29:17.227Z,6.20
2022-12-08T13:31:54.369Z,6.20
2022-12-08T13:34:41.602Z,4.40
2022-12-08T13:37:11.286Z,6.40
2022-12-08T13:40:03.162Z,5.40
2022-12-08T13:42:47.987Z,4.73
2022-12-08T13:45:59.127Z,4.60
2022-12-08T13:49:59.259Z,7.30
2022-12-08T13:57:26.814Z,4.40
2022-12-08T13:59:53.570Z,6.73
2022-12-08T14:02:47.126Z,4.13
2022-12-08T14:05:18.658Z,4.10
2022-12-08T14:07:48.218Z,4.90
2022-12-08T14:10:29.410Z,6.53
2022-12-08T14:13:01.597Z,4.47
2022-12-08T14:15:32.685Z,5.80
2022-12-08T14:18:03.728Z,6.90
2022-12-08T14:20:33.831Z,13.27
2022-12-08T14:23:09.446Z,10.70
2022-12-08T14:25:36.195Z,12.10
2022-12-08T14:28:04.983Z,14.07
2022-12-08T14:30:32.719Z,17.90
2022-12-08T14:33:01.584Z,12.30
2022-12-08T14:35:31.443Z,11.87
2022-12-08T14:38:15.920Z,10.80
2022-12-08T14:40:48.202Z,9.50
2022-12-08T14:43:18.972Z,9.70
2022-12-08T14:45:45.554Z,11.00
2022-12-08T14:48:39.496Z,11.23
2022-12-08T14:51:21.489Z,13.57
2022-12-08T14:54:01.117Z,13.97
2022-12-08T14:56:56.855Z,11.20
2022-12-08T14:59:32.407Z,11.53
2022-12-08T15:02:21.695Z,11.30
2022-12-08T15:04:54.394Z,12.10
2022-12-08T15:07:24.824Z,11.07
2022-12-08T15:10:22.830Z,14.43
2022-12-08T15:13:10.875Z,12.87
2022-12-08T15:15:56.821Z,11.07
2022-12-08T15:18:38.693Z,10.63
2022-12-08T15:21:09.026Z,13.03
2022-12-08T15:23:42.657Z,11.63
2022-12-08T15:26:14.789Z,11.90
2022-12-08T15:28:41.475Z,11.07
2022-12-08T15:31:09.344Z,14.40
2022-12-08T15:33:37.246Z,12.03
2022-12-08T15:36:04.279Z,13.67
2022-12-08T15:38:31.007Z,16.47
2022-12-08T15:40:58.842Z,11.93
2022-12-08T15:43:26.140Z,9.70
2022-12-08T15:45:59.490Z,12.90
2022-12-08T15:48:28.943Z,13.47
2022-12-08T15:50:56.546Z,14.63
2022-12-08T15:53:23.477Z,24.43
2022-12-08T15:56:19.043Z,33.37
2022-12-08T15:58:55.249Z,65.60
2022-12-08T16:01:22.776Z,24.87
2022-12-08T16:09:41.557Z,34.83
2022-12-08T16:13:40.334Z,37.10
2022-12-08T16:18:19.034Z,15.80
2022-12-08T16:23:46.691Z,11.80
2022-12-08T16:26:28.669Z,13.80
2022-12-08T16:29:03.503Z,14.73
2022-12-08T16:31:31.221Z,12.10
2022-12-08T16:33:58.086Z,17.77
2022-12-08T16:36:24.868Z,14.53
2022-12-08T16:38:51.587Z,13.67
2022-12-08T16:41:37.166Z,11.93
2022-12-08T16:44:06.097Z,17.10
2022-12-08T16:46:33.989Z,11.97
2022-12-08T16:49:00.673Z,10.83
2022-12-08T16:51:27.784Z,10.87
2022-12-08T16:53:56.974Z,12.83
2022-12-08T16:56:30.384Z,14.70
2022-12-08T16:58:59.197Z,11.90
2022-12-08T17:01:26.071Z,9.77
2022-12-08T17:04:22.424Z,9.33
2022-12-08T17:06:39.964Z,10.20
2022-12-08T17:09:06.707Z,11.10
2022-12-08T17:11:39.169Z,12.37
2022-12-08T17:14:09.277Z,10.60
2022-12-08T17:16:36.041Z,12.17
2022-12-08T17:19:02.764Z,9.97
2022-12-08T17:21:29.828Z,12.53
2022-12-08T17:23:56.485Z,12.43
2022-12-08T17:26:23.148Z,21.00
2022-12-08T17:29:05.547Z,12.33
2022-12-08T17:31:33.079Z,17.17
2022-12-08T17:34:06.375Z,12.10
2022-12-08T17:36:33.120Z,15.40
2022-12-08T17:39:00.883Z,13.67
2022-12-08T17:41:27.802Z,13.33
2022-12-08T17:43:54.628Z,14.40
2022-12-08T17:46:22.655Z,10.00
2022-12-08T17:48:50.057Z,12.10
2022-12-08T17:51:17.143Z,11.80
2022-12-08T17:53:44.005Z,10.83
2022-12-08T17:56:20.324Z,12.67
2022-12-08T17:58:51.326Z,10.17
2022-12-08T18:01:21.928Z,12.20
2022-12-08T18:03:48.631Z,11.10
2022-12-08T18:06:17.475Z,12.00
2022-12-08T18:08:44.846Z,10.53
2022-12-08T18:11:17.579Z,11.20
2022-12-08T18:13:45.834Z,12.37
2022-12-08T18:16:14.788Z,10.30
2022-12-08T18:18:42.147Z,9.53
2022-12-08T18:21:09.491Z,12.53
2022-12-08T18:23:40.265Z,15.00
2022-12-08T18:26:09.104Z,12.23
2022-12-08T18:28:36.819Z,10.93
2022-12-08T18:31:09.791Z,13.33
2022-12-08T18:33:37.497Z,12.00
2022-12-08T18:36:11.905Z,14.87
2022-12-08T18:38:39.248Z,14.30
2022-12-08T18:41:11.656Z,15.73
2022-12-08T18:43:38.630Z,14.10
2022-12-08T18:46:09.366Z,13.53
2022-12-08T18:48:37.757Z,12.47
2022-12-08T18:51:09.105Z,14.03
2022-12-08T18:53:35.873Z,14.03
2022-12-08T18:56:02.670Z,12.33
2022-12-08T18:58:29.323Z,13.73
2022-12-08T19:00:56.260Z,12.77
2022-12-08T19:03:23.024Z,12.50
2022-12-08T19:05:49.636Z,14.00
2022-12-08T19:08:16.355Z,15.33
2022-12-08T19:10:43.061Z,12.67
2022-12-08T19:13:10.740Z,16.50
2022-12-08T19:15:37.422Z,19.83
2022-12-08T19:18:04.220Z,13.20
2022-12-08T19:20:30.864Z,14.60
2022-12-08T19:22:57.623Z,22.60
2022-12-08T19:25:25.342Z,14.60
2022-12-08T19:27:52.031Z,10.40
2022-12-08T19:30:18.769Z,12.23
2022-12-08T19:32:45.433Z,12.13
2022-12-08T19:35:12.575Z,12.33
2022-12-08T19:37:39.545Z,14.23
2022-12-08T19:40:25.321Z,14.43
2022-12-08T19:43:10.853Z,16.10
2022-12-08T19:45:38.407Z,15.07
2022-12-08T19:48:05.389Z,16.43
2022-12-08T19:50:38.231Z,13.67
2022-12-08T19:53:11.126Z,10.97
2022-12-08T19:55:38.858Z,13.77
2022-12-08T19:58:06.498Z,16.63
2022-12-08T20:00:34.278Z,12.70
2022-12-08T20:03:02.118Z,14.10
2022-12-08T20:05:30.031Z,14.90
2022-12-08T20:07:57.410Z,14.90
2022-12-08T20:10:38.655Z,12.57
2022-12-08T20:13:24.396Z,23.83
2022-12-08T20:15:51.536Z,14.93
2022-12-08T20:18:18.802Z,16.30
2022-12-08T20:20:46.704Z,20.40
2022-12-08T20:23:14.279Z,15.77
2022-12-08T20:25:42.726Z,16.10
2022-12-08T20:28:09.519Z,17.63
2022-12-08T20:30:38.984Z,14.37
2022-12-08T20:33:05.761Z,13.10
2022-12-08T20:35:32.636Z,15.57
2022-12-08T20:37:59.352Z,16.57
2022-12-08T20:40:26.139Z,19.13
2022-12-08T20:42:52.870Z,15.43
2022-12-08T20:45:19.705Z,13.50
2022-12-08T20:47:46.444Z,18.03
2022-12-08T20:50:13.126Z,19.63
2022-12-08T20:52:40.259Z,16.77
2022-12-08T20:55:07.893Z,17.13
2022-12-08T20:57:34.713Z,18.00
2022-12-08T21:00:01.729Z,16.77
2022-12-08T21:02:28.773Z,23.00
2022-12-08T21:04:55.832Z,22.97
2022-12-08T21:07:22.550Z,16.07
2022-12-08T21:09:49.381Z,15.60
2022-12-08T21:12:16.196Z,11.90
2022-12-08T21:14:43.515Z,11.47
2022-12-08T21:17:10.485Z,15.13
2022-12-08T21:19:37.438Z,15.00
2022-12-08T21:22:04.441Z,14.17
2022-12-08T21:24:34.244Z,12.60
2022-12-08T21:27:01.609Z,14.23
2022-12-08T21:29:28.594Z,14.13
2022-12-08T21:31:57.344Z,16.43
2022-12-08T21:34:25.778Z,20.60
2022-12-08T21:36:53.213Z,20.67
2022-12-08T21:39:20.115Z,14.50
2022-12-08T21:42:05.326Z,18.10
2022-12-08T21:44:35.304Z,18.13
2022-12-08T21:47:03.511Z,16.10
2022-12-08T21:49:30.528Z,20.47
2022-12-08T21:51:57.345Z,19.93
2022-12-08T21:54:24.428Z,17.67
2022-12-08T21:56:51.367Z,22.33
2022-12-08T21:59:18.775Z,24.47
2022-12-08T22:01:45.872Z,19.00
2022-12-08T22:04:17.482Z,22.20
2022-12-08T22:06:44.242Z,15.50
2022-12-08T22:09:13.442Z,15.50
2022-12-08T22:11:40.828Z,18.40
2022-12-08T22:14:12.578Z,15.50
2022-12-08T22:16:41.565Z,15.90
2022-12-08T22:19:08.437Z,18.33
2022-12-08T22:21:35.315Z,16.30
2022-12-08T22:24:02.224Z,17.73
2022-12-08T22:26:29.405Z,17.27
2022-12-08T22:28:56.265Z,19.10
2022-12-08T22:31:23.533Z,20.13
2022-12-08T22:33:51.333Z,22.30
2022-12-08T22:36:21.717Z,19.20
2022-12-08T22:38:49.197Z,18.53
2022-12-08T22:41:16.902Z,16.13
2022-12-08T22:43:44.424Z,22.60
2022-12-08T22:46:15.020Z,14.93
2022-12-08T22:48:42.240Z,16.47
2022-12-08T22:51:09.664Z,20.13
2022-12-08T22:53:37.019Z,17.87
2022-12-08T22:56:05.659Z,21.27
2022-12-08T22:58:32.912Z,16.07
2022-12-08T23:00:59.875Z,16.90
2022-12-08T23:03:26.949Z,17.87
2022-12-08T23:05:54.095Z,15.00
2022-12-08T23:08:21.028Z,20.20
2022-12-08T23:10:52.338Z,19.27
2022-12-08T23:13:20.159Z,19.03
2022-12-08T23:15:47.747Z,16.73
2022-12-08T23:18:18.756Z,16.77
2022-12-08T23:20:46.926Z,16.30
2022-12-08T23:23:13.930Z,18.63
2022-12-08T23:25:41.557Z,21.40
2022-12-08T23:28:08.792Z,14.23
2022-12-08T23:30:35.988Z,16.00
2022-12-08T23:33:02.673Z,23.30
2022-12-08T23:35:29.496Z,21.23
2022-12-08T23:37:56.391Z,17.27
2022-12-08T23:40:23.186Z,16.83
2022-12-08T23:42:50.051Z,19.40
2022-12-08T23:45:16.830Z,16.03
2022-12-08T23:47:43.706Z,21.33
2022-12-08T23:50:11.161Z,17.40
2022-12-08T23:52:39.851Z,18.30
2022-12-08T23:55:07.913Z,17.23
2022-12-08T23:57:39.120Z,19.83
